createdAt,value
2023-02-04T00:00:02.289Z,7.78
2023-02-04T00:02:28.724Z,7.75
2023-02-04T00:04:55.211Z,7.74
2023-02-04T00:07:21.848Z,7.71
2023-02-04T00:09:49.824Z,7.70
2023-02-04T00:12:16.525Z,7.69
2023-02-04T00:14:43.069Z,7.69
2023-02-04T00:17:11.524Z,7.66
2023-02-04T00:19:37.893Z,7.66
2023-02-04T00:22:04.556Z,7.66
2023-02-04T00:24:31.104Z,7.66
2023-02-04T00:26:57.602Z,7.66
2023-02-04T00:29:23.994Z,7.68
2023-02-04T00:31:50.538Z,7.66
2023-02-04T00:34:18.277Z,7.66
2023-02-04T00:36:45.356Z,7.66
2023-02-04T00:39:11.836Z,7.66
2023-02-04T00:41:38.298Z,7.66
2023-02-04T00:44:04.915Z,7.66
2023-02-04T00:46:31.746Z,7.64
2023-02-04T00:48:58.158Z,7.63
2023-02-04T00:51:24.520Z,7.60
2023-02-04T00:53:50.914Z,7.55
2023-02-04T00:56:17.254Z,7.49
2023-02-04T00:58:43.730Z,7.47
2023-02-04T01:01:10.154Z,7.46
2023-02-04T01:03:36.593Z,7.46
2023-02-04T01:06:03.052Z,7.45
2023-02-04T01:08:29.481Z,7.44
2023-02-04T01:10:56.033Z,7.43
2023-02-04T01:13:22.507Z,7.43
2023-02-04T01:15:48.864Z,7.42
2023-02-04T01:18:15.322Z,7.42
2023-02-04T01:20:41.770Z,7.42
2023-02-04T01:23:08.181Z,7.42
2023-02-04T01:25:34.787Z,7.41
2023-02-04T01:28:01.374Z,7.40
2023-02-04T01:30:27.787Z,7.38
2023-02-04T01:32:54.163Z,7.37
2023-02-04T01:35:20.797Z,7.36
2023-02-04T01:37:47.183Z,7.34
2023-02-04T01:40:13.863Z,7.32
2023-02-04T01:42:40.836Z,7.30
2023-02-04T01:45:08.052Z,7.28
2023-02-04T01:47:35.075Z,7.26
2023-02-04T01:50:01.994Z,7.25
2023-02-04T01:52:34.891Z,7.24
2023-02-04T01:55:01.384Z,7.22
2023-02-04T01:57:28.284Z,7.22
2023-02-04T01:59:56.282Z,7.25
2023-02-04T02:02:42.769Z,7.25
2023-02-04T02:05:12.718Z,7.22
2023-02-04T02:07:39.266Z,7.21
2023-02-04T02:10:07.520Z,7.20
2023-02-04T02:12:33.868Z,7.19
2023-02-04T02:15:00.730Z,7.20
2023-02-04T02:17:27.360Z,7.20
2023-02-04T02:19:53.899Z,7.20
2023-02-04T02:22:29.232Z,7.21
2023-02-04T02:24:55.679Z,7.19
2023-02-04T02:27:22.203Z,7.15
2023-02-04T02:29:48.660Z,7.15
2023-02-04T02:32:15.613Z,7.13
2023-02-04T02:34:43.229Z,7.13
2023-02-04T02:37:10.477Z,7.12
2023-02-04T02:39:39.246Z,7.12
2023-02-04T02:42:06.373Z,7.10
2023-02-04T02:44:33.865Z,7.07
2023-02-04T02:47:00.510Z,7.01
2023-02-04T02:49:28.743Z,6.96
2023-02-04T02:51:55.131Z,6.92
2023-02-04T02:54:24.590Z,6.88
2023-02-04T02:56:52.945Z,6.82
2023-02-04T02:59:20.541Z,6.77
2023-02-04T03:01:50.500Z,6.71
2023-02-04T03:04:19.052Z,6.64
2023-02-04T03:06:45.444Z,6.59
2023-02-04T03:09:12.206Z,6.56
2023-02-04T03:11:38.629Z,6.54
2023-02-04T03:14:05.702Z,6.53
2023-02-04T03:16:34.466Z,6.50
2023-02-04T03:19:01.651Z,6.46
2023-02-04T03:21:28.717Z,6.43
2023-02-04T03:23:58.335Z,6.40
2023-02-04T03:26:26.005Z,6.35
2023-02-04T03:28:55.217Z,6.35
2023-02-04T03:31:21.811Z,6.33
2023-02-04T03:33:48.355Z,6.35
2023-02-04T03:36:14.766Z,6.35
2023-02-04T03:38:41.344Z,6.31
2023-02-04T03:41:08.135Z,6.27
2023-02-04T03:43:34.637Z,6.25
2023-02-04T03:46:01.109Z,6.25
2023-02-04T03:48:27.477Z,6.25
2023-02-04T03:50:53.819Z,6.27
2023-02-04T03:53:22.011Z,6.25
2023-02-04T03:55:48.452Z,6.29
2023-02-04T03:58:14.816Z,6.30
2023-02-04T04:00:41.154Z,6.30
2023-02-04T04:03:07.587Z,6.33
2023-02-04T04:05:34.100Z,6.36
2023-02-04T04:08:00.644Z,6.37
2023-02-04T04:10:29.356Z,6.40
2023-02-04T04:12:56.050Z,6.41
2023-02-04T04:15:22.506Z,6.43
2023-02-04T04:17:48.934Z,6.43
2023-02-04T04:20:15.514Z,6.41
2023-02-04T04:22:41.996Z,6.40
2023-02-04T04:25:09.016Z,6.39
2023-02-04T04:27:35.422Z,6.39
2023-02-04T04:30:02.129Z,6.38
2023-02-04T04:32:28.524Z,6.37
2023-02-04T04:34:54.871Z,6.35
2023-02-04T04:37:21.400Z,6.33
2023-02-04T04:39:47.765Z,6.31
2023-02-04T04:42:14.190Z,6.30
2023-02-04T04:44:40.621Z,6.30
2023-02-04T04:47:07.056Z,6.30
2023-02-04T04:49:33.600Z,6.28
2023-02-04T04:52:00.003Z,6.27
2023-02-04T04:54:26.464Z,6.24
2023-02-04T04:56:52.845Z,6.25
2023-02-04T04:59:19.253Z,6.27
2023-02-04T05:01:45.691Z,6.29
2023-02-04T05:04:12.125Z,6.31
2023-02-04T05:06:38.684Z,6.31
2023-02-04T05:09:05.153Z,6.31
2023-02-04T05:11:31.557Z,6.29
2023-02-04T05:13:57.891Z,6.27
2023-02-04T05:16:24.434Z,6.21
2023-02-04T05:18:50.915Z,6.18
2023-02-04T05:21:17.265Z,6.16
2023-02-04T05:23:43.710Z,6.13
2023-02-04T05:26:12.292Z,6.08
2023-02-04T05:28:40.006Z,6.08
2023-02-04T05:31:06.592Z,6.06
2023-02-04T05:33:33.074Z,6.05
2023-02-04T05:35:59.416Z,6.04
2023-02-04T05:38:25.812Z,6.03
2023-02-04T05:40:52.207Z,6.02
2023-02-04T05:43:18.713Z,6.01
2023-02-04T05:45:45.186Z,6.01
2023-02-04T05:48:11.643Z,6.02
2023-02-04T05:50:38.091Z,6.02
2023-02-04T05:53:04.539Z,5.99
2023-02-04T05:55:30.912Z,6.01
2023-02-04T05:57:57.267Z,6.04
2023-02-04T06:00:23.822Z,6.05
2023-02-04T06:02:50.279Z,6.05
2023-02-04T06:05:18.132Z,6.05
2023-02-04T06:07:44.480Z,6.06
2023-02-04T06:10:11.567Z,6.08
2023-02-04T06:12:37.986Z,6.10
2023-02-04T06:15:04.873Z,6.08
2023-02-04T06:17:31.301Z,6.06
2023-02-04T06:19:57.847Z,6.09
2023-02-04T06:22:25.828Z,6.11
2023-02-04T06:24:52.308Z,6.13
2023-02-04T06:27:23.206Z,6.13
2023-02-04T06:29:53.904Z,6.16
2023-02-04T06:32:21.121Z,6.15
2023-02-04T06:34:47.534Z,6.14
2023-02-04T06:37:15.796Z,6.14
2023-02-04T06:39:42.633Z,6.12
2023-02-04T06:42:09.185Z,6.12
2023-02-04T06:44:35.563Z,6.12
2023-02-04T06:47:01.932Z,6.13
2023-02-04T06:49:28.366Z,6.11
2023-02-04T06:51:55.321Z,6.10
2023-02-04T06:54:21.794Z,6.10
2023-02-04T06:56:48.292Z,6.07
2023-02-04T06:59:14.742Z,6.05
2023-02-04T07:01:41.281Z,6.04
2023-02-04T07:04:07.665Z,6.05
2023-02-04T07:06:34.072Z,6.06
2023-02-04T07:09:00.578Z,6.06
2023-02-04T07:11:27.104Z,6.06
2023-02-04T07:13:53.527Z,6.06
2023-02-04T07:16:19.931Z,6.05
2023-02-04T07:18:46.253Z,6.04
2023-02-04T07:21:12.642Z,6.01
2023-02-04T07:23:39.089Z,6.02
2023-02-04T07:26:05.605Z,6.01
2023-02-04T07:28:32.005Z,6.03
2023-02-04T07:30:58.510Z,6.03
2023-02-04T07:33:25.061Z,6.00
2023-02-04T07:35:51.498Z,6.01
2023-02-04T07:38:17.874Z,6.03
2023-02-04T07:40:44.287Z,6.05
2023-02-04T07:43:10.896Z,6.07
2023-02-04T07:45:37.263Z,6.09
2023-02-04T07:48:03.897Z,6.13
2023-02-04T07:50:30.963Z,6.17
2023-02-04T07:52:57.571Z,6.20
2023-02-04T07:55:24.051Z,6.22
2023-02-04T07:57:50.562Z,6.25
2023-02-04T08:00:17.152Z,6.28
2023-02-04T08:02:43.648Z,6.32
2023-02-04T08:05:10.752Z,6.33
2023-02-04T08:07:37.522Z,6.35
2023-02-04T08:10:05.649Z,6.36
2023-02-04T08:12:32.180Z,6.38
2023-02-04T08:14:58.825Z,6.41
2023-02-04T08:17:25.237Z,6.44
2023-02-04T08:19:51.683Z,6.47
2023-02-04T08:22:18.121Z,6.50
2023-02-04T08:24:44.768Z,6.54
2023-02-04T08:27:11.419Z,6.56
2023-02-04T08:29:38.371Z,6.56
2023-02-04T08:32:05.240Z,6.56
2023-02-04T08:34:31.794Z,6.58
2023-02-04T08:36:58.211Z,6.60
2023-02-04T08:39:24.636Z,6.61
2023-02-04T08:41:51.381Z,6.63
2023-02-04T08:44:17.857Z,6.66
2023-02-04T08:46:44.363Z,6.67
2023-02-04T08:49:10.835Z,6.69
2023-02-04T08:51:37.192Z,6.70
2023-02-04T08:54:03.717Z,6.71
2023-02-04T08:56:31.134Z,6.74
2023-02-04T08:58:57.554Z,6.77
2023-02-04T09:01:24.276Z,6.77
2023-02-04T09:03:50.738Z,6.76
2023-02-04T09:06:17.179Z,6.77
2023-02-04T09:08:43.659Z,6.75
2023-02-04T09:11:12.197Z,6.76
2023-02-04T09:13:39.573Z,6.76
2023-02-04T09:16:06.178Z,6.76
2023-02-04T09:18:32.776Z,6.78
2023-02-04T09:20:59.309Z,6.79
2023-02-04T09:23:25.798Z,6.82
2023-02-04T09:25:52.204Z,6.84
2023-02-04T09:28:18.788Z,6.89
2023-02-04T09:30:46.920Z,7.00
2023-02-04T09:33:15.308Z,7.15
2023-02-04T09:35:41.736Z,7.28
2023-02-04T09:38:08.244Z,7.31
2023-02-04T09:40:40.781Z,7.31
2023-02-04T09:43:07.299Z,7.29
2023-02-04T09:45:35.705Z,7.35
2023-02-04T09:48:06.452Z,7.44
2023-02-04T09:50:34.005Z,7.59
2023-02-04T09:53:05.534Z,7.83
2023-02-04T09:55:35.414Z,8.10
2023-02-04T09:58:02.762Z,8.25
2023-02-04T10:00:31.588Z,8.28
2023-02-04T10:03:02.261Z,8.29
2023-02-04T10:05:31.349Z,8.30
2023-02-04T10:07:58.784Z,8.29
2023-02-04T10:10:27.369Z,8.32
2023-02-04T10:12:58.938Z,8.37
2023-02-04T10:15:26.362Z,8.48
2023-02-04T10:17:58.390Z,8.67
2023-02-04T10:20:25.692Z,8.84
2023-02-04T10:22:54.713Z,8.91
2023-02-04T10:25:23.888Z,8.88
2023-02-04T10:28:00.323Z,9.06
2023-02-04T10:30:33.385Z,9.25
2023-02-04T10:33:00.944Z,9.36
2023-02-04T10:35:27.335Z,9.33
2023-02-04T10:38:06.694Z,9.33
2023-02-04T10:40:36.586Z,9.43
2023-02-04T10:43:21.280Z,9.58
2023-02-04T10:45:55.976Z,9.60
2023-02-04T10:48:22.891Z,9.67
2023-02-04T10:50:49.786Z,9.86
2023-02-04T10:53:40.105Z,9.72
2023-02-04T10:56:16.634Z,9.47
2023-02-04T10:58:44.033Z,9.35
2023-02-04T11:01:11.975Z,9.35
2023-02-04T11:03:40.143Z,9.42
2023-02-04T11:06:13.285Z,9.49
2023-02-04T11:08:40.688Z,9.57
2023-02-04T11:11:19.598Z,9.64
2023-02-04T11:13:46.023Z,9.59
2023-02-04T11:16:18.821Z,9.57
2023-02-04T11:18:54.452Z,9.71
2023-02-04T11:21:33.036Z,9.92
2023-02-04T11:24:11.798Z,10.08
2023-02-04T11:26:41.287Z,10.09
2023-02-04T11:29:25.708Z,10.14
2023-02-04T11:31:52.177Z,10.15
2023-02-04T11:34:19.352Z,10.42
2023-02-04T11:37:13.388Z,10.59
2023-02-04T11:39:49.839Z,10.68
2023-02-04T11:42:42.914Z,10.72
2023-02-04T11:45:26.911Z,10.51
2023-02-04T11:47:54.118Z,10.38
2023-02-04T11:50:31.169Z,10.45
2023-02-04T11:52:59.494Z,10.50
2023-02-04T11:55:26.275Z,10.40
2023-02-04T11:57:55.336Z,10.54
2023-02-04T12:00:28.542Z,10.68
2023-02-04T12:02:59.084Z,10.75
2023-02-04T12:05:43.482Z,10.74
2023-02-04T12:08:26.096Z,10.71
2023-02-04T12:10:58.746Z,10.58
2023-02-04T12:13:26.248Z,10.34
2023-02-04T12:15:59.657Z,10.28
2023-02-04T12:18:27.852Z,10.27
2023-02-04T12:20:58.148Z,10.28
2023-02-04T12:23:26.416Z,10.33
2023-02-04T12:25:53.391Z,10.36
2023-02-04T12:28:20.589Z,10.46
2023-02-04T12:30:47.149Z,10.49
2023-02-04T12:33:15.052Z,10.43
2023-02-04T12:35:41.981Z,10.50
2023-02-04T12:38:09.222Z,10.47
2023-02-04T12:40:36.255Z,10.42
2023-02-04T12:43:02.814Z,10.38
2023-02-04T12:45:29.522Z,10.49
2023-02-04T12:47:56.029Z,10.68
2023-02-04T12:50:22.825Z,10.82
2023-02-04T12:52:54.099Z,10.90
2023-02-04T12:55:21.864Z,10.88
2023-02-04T12:57:48.280Z,10.87
2023-02-04T13:00:15.963Z,10.80
2023-02-04T13:02:42.434Z,10.79
2023-02-04T13:05:09.008Z,10.70
2023-02-04T13:07:35.937Z,10.66
2023-02-04T13:10:02.429Z,10.56
2023-02-04T13:12:28.895Z,10.45
2023-02-04T13:14:55.286Z,10.46
2023-02-04T13:17:21.703Z,10.45
2023-02-04T13:19:48.113Z,10.42
2023-02-04T13:22:14.534Z,10.42
2023-02-04T13:24:40.945Z,10.40
2023-02-04T13:27:07.384Z,10.34
2023-02-04T13:29:33.887Z,10.34
2023-02-04T13:32:00.362Z,10.30
2023-02-04T13:34:26.786Z,10.34
2023-02-04T13:36:53.947Z,10.39
2023-02-04T13:39:20.389Z,10.45
2023-02-04T13:41:47.057Z,10.55
2023-02-04T13:44:13.672Z,10.57
2023-02-04T13:46:40.145Z,10.63
2023-02-04T13:49:06.520Z,10.68
2023-02-04T13:51:32.870Z,10.68
2023-02-04T13:54:00.348Z,10.70
2023-02-04T13:56:27.862Z,10.78
2023-02-04T13:58:54.443Z,10.84
2023-02-04T14:01:20.856Z,10.84
2023-02-04T14:03:47.299Z,10.78
2023-02-04T14:06:15.041Z,10.67
2023-02-04T14:08:41.486Z,10.63
2023-02-04T14:11:07.886Z,10.61
2023-02-04T14:13:34.321Z,10.59
2023-02-04T14:16:00.666Z,10.59
2023-02-04T14:18:27.129Z,10.61
2023-02-04T14:20:53.557Z,10.57
2023-02-04T14:23:19.906Z,10.51
2023-02-04T14:25:46.267Z,10.45
2023-02-04T14:28:12.618Z,10.46
2023-02-04T14:30:39.215Z,10.55
2023-02-04T14:33:05.668Z,10.59
2023-02-04T14:35:32.910Z,10.65
2023-02-04T14:37:59.714Z,10.58
2023-02-04T14:40:26.127Z,10.57
2023-02-04T14:42:52.598Z,10.52
2023-02-04T14:45:19.178Z,10.39
2023-02-04T14:47:45.684Z,10.32
2023-02-04T14:50:15.424Z,10.21
2023-02-04T14:52:42.037Z,10.22
2023-02-04T14:55:12.794Z,10.22
2023-02-04T14:57:39.177Z,10.20
2023-02-04T15:00:07.144Z,10.21
2023-02-04T15:02:33.913Z,10.23
2023-02-04T15:05:00.390Z,10.20
2023-02-04T15:07:26.739Z,10.12
2023-02-04T15:09:53.164Z,10.02
2023-02-04T15:12:19.567Z,9.90
2023-02-04T15:14:46.258Z,9.89
2023-02-04T15:17:12.929Z,9.91
2023-02-04T15:19:39.352Z,9.91
2023-02-04T15:22:05.802Z,9.84
2023-02-04T15:24:32.251Z,9.82
2023-02-04T15:26:58.820Z,9.87
2023-02-04T15:29:25.229Z,9.86
2023-02-04T15:31:51.935Z,9.76
2023-02-04T15:34:18.383Z,9.75
2023-02-04T15:36:44.776Z,9.74
2023-02-04T15:39:11.161Z,9.76
2023-02-04T15:41:37.606Z,9.73
2023-02-04T15:44:05.527Z,9.72
2023-02-04T15:46:32.898Z,9.72
2023-02-04T15:49:00.048Z,9.69
2023-02-04T15:51:26.523Z,9.63
2023-02-04T15:53:53.118Z,9.60
2023-02-04T15:56:19.739Z,9.52
2023-02-04T15:58:46.132Z,9.48
2023-02-04T16:01:14.602Z,9.44
2023-02-04T16:03:44.587Z,9.42
2023-02-04T16:06:11.380Z,9.38
2023-02-04T16:08:37.755Z,9.37
2023-02-04T16:11:06.007Z,9.34
2023-02-04T16:13:32.716Z,9.32
2023-02-04T16:15:59.148Z,9.31
2023-02-04T16:18:25.692Z,9.30
2023-02-04T16:20:52.120Z,9.26
2023-02-04T16:23:18.507Z,9.21
2023-02-04T16:25:44.993Z,9.16
2023-02-04T16:28:11.465Z,9.12
2023-02-04T16:30:39.294Z,9.11
2023-02-04T16:33:06.833Z,9.07
2023-02-04T16:36:07.074Z,9.14
2023-02-04T16:38:33.871Z,9.09
2023-02-04T16:41:00.324Z,9.10
2023-02-04T16:43:26.841Z,9.10
2023-02-04T16:45:53.397Z,9.08
2023-02-04T16:48:19.758Z,9.10
2023-02-04T16:50:46.160Z,9.11
2023-02-04T16:53:16.040Z,9.09
2023-02-04T16:55:44.192Z,9.06
2023-02-04T16:58:11.613Z,9.01
2023-02-04T17:00:41.910Z,8.93
2023-02-04T17:03:09.754Z,8.87
2023-02-04T17:05:37.225Z,8.82
2023-02-04T17:08:03.887Z,8.81
2023-02-04T17:10:48.922Z,8.83
2023-02-04T17:13:15.330Z,8.81
2023-02-04T17:15:41.781Z,8.78
2023-02-04T17:18:08.220Z,8.79
2023-02-04T17:20:34.956Z,8.81
2023-02-04T17:23:01.563Z,8.78
2023-02-04T17:25:28.014Z,8.72
2023-02-04T17:27:55.963Z,8.67
2023-02-04T17:30:22.862Z,8.68
2023-02-04T17:32:49.276Z,8.64
2023-02-04T17:35:17.241Z,8.63
2023-02-04T17:37:43.988Z,8.64
2023-02-04T17:40:14.268Z,8.65
2023-02-04T17:42:41.319Z,8.67
2023-02-04T17:45:10.634Z,8.66
2023-02-04T17:47:38.427Z,8.65
2023-02-04T17:50:07.452Z,8.67
2023-02-04T17:52:34.410Z,8.67
2023-02-04T17:55:01.731Z,8.67
2023-02-04T17:57:28.580Z,8.66
2023-02-04T17:59:54.982Z,8.67
2023-02-04T18:02:30.176Z,8.68
2023-02-04T18:05:03.041Z,8.68
2023-02-04T18:07:29.745Z,8.67
2023-02-04T18:10:18.126Z,8.66
2023-02-04T18:12:44.465Z,8.60
2023-02-04T18:15:28.072Z,8.61
2023-02-04T18:18:31.026Z,8.64
2023-02-04T18:21:01.071Z,8.64
2023-02-04T18:23:30.056Z,8.64
2023-02-04T18:26:05.108Z,8.64
2023-02-04T18:28:34.233Z,8.60
2023-02-04T18:31:01.700Z,8.58
2023-02-04T18:33:32.049Z,8.56
2023-02-04T18:36:00.869Z,8.57
2023-02-04T18:38:29.465Z,8.57
2023-02-04T18:41:02.354Z,8.56
2023-02-04T18:43:35.522Z,8.51
2023-02-04T18:46:16.401Z,8.50
2023-02-04T18:49:00.060Z,8.51
2023-02-04T18:51:39.769Z,8.53
2023-02-04T18:57:28.875Z,8.52
2023-02-04T19:00:28.308Z,8.56
2023-02-04T19:03:00.891Z,8.52
2023-02-04T19:05:45.788Z,8.53
2023-02-04T19:08:25.188Z,8.52
2023-02-04T19:10:56.814Z,8.50
2023-02-04T19:14:01.584Z,8.54
2023-02-04T19:16:36.697Z,8.51
2023-02-04T19:19:26.628Z,8.50
2023-02-04T19:21:53.457Z,8.46
2023-02-04T19:24:29.330Z,8.43
2023-02-04T19:26:58.718Z,8.39
2023-02-04T19:29:27.488Z,8.33
2023-02-04T19:32:20.114Z,8.30
2023-02-04T19:34:46.752Z,8.18
2023-02-04T19:37:38.945Z,8.17
2023-02-04T19:40:24.246Z,8.21
2023-02-04T19:42:53.932Z,8.20
2023-02-04T19:45:23.168Z,8.22
2023-02-04T19:47:54.874Z,8.26
2023-02-04T19:50:24.330Z,8.27
2023-02-04T19:52:57.941Z,8.28
2023-02-04T19:55:31.109Z,8.28
2023-02-04T19:58:01.115Z,8.25
2023-02-04T20:00:35.176Z,8.26
2023-02-04T20:03:10.408Z,8.21
2023-02-04T20:05:36.872Z,8.18
2023-02-04T20:08:46.280Z,8.21
2023-02-04T20:11:15.337Z,8.17
2023-02-04T20:13:41.769Z,8.13
2023-02-04T20:16:36.042Z,8.13
2023-02-04T20:19:17.916Z,8.08
2023-02-04T20:22:18.790Z,8.06
2023-02-04T20:24:50.595Z,8.02
2023-02-04T20:27:21.835Z,8.01
2023-02-04T20:29:49.838Z,8.00
2023-02-04T20:32:21.199Z,7.98
2023-02-04T20:34:48.045Z,7.95
2023-02-04T20:37:48.926Z,7.94
2023-02-04T20:40:31.830Z,7.95
2023-02-04T20:43:06.219Z,7.92
2023-02-04T20:45:55.054Z,7.90
2023-02-04T20:48:41.589Z,7.88
2023-02-04T20:51:23.282Z,7.89
2023-02-04T20:54:03.247Z,7.92
2023-02-04T20:56:41.977Z,7.94
2023-02-04T20:59:11.568Z,7.91
2023-02-04T21:01:46.523Z,7.92
2023-02-04T21:04:50.115Z,7.90
2023-02-04T21:07:25.537Z,7.88
2023-02-04T21:09:51.918Z,7.86
2023-02-04T21:12:18.450Z,7.85
2023-02-04T21:14:44.948Z,7.82
2023-02-04T21:17:11.378Z,7.81
2023-02-04T21:19:40.143Z,7.81
2023-02-04T21:22:06.913Z,7.82
2023-02-04T21:24:33.770Z,7.80
2023-02-04T21:27:00.416Z,7.79
2023-02-04T21:29:27.142Z,7.77
2023-02-04T21:31:54.587Z,7.76
2023-02-04T21:34:21.566Z,7.74
2023-02-04T21:36:48.110Z,7.75
2023-02-04T21:39:14.626Z,7.76
2023-02-04T21:41:41.125Z,7.75
2023-02-04T21:44:10.444Z,7.75
2023-02-04T21:46:36.914Z,7.73
2023-02-04T21:49:06.364Z,7.72
2023-02-04T21:51:32.758Z,7.73
2023-02-04T21:54:03.127Z,7.74
2023-02-04T21:56:29.737Z,7.75
2023-02-04T21:58:59.370Z,7.75
2023-02-04T22:01:25.799Z,7.71
2023-02-04T22:03:52.315Z,7.73
2023-02-04T22:06:18.775Z,7.70
2023-02-04T22:08:45.135Z,7.68
2023-02-04T22:11:16.000Z,7.68
2023-02-04T22:13:45.846Z,7.69
2023-02-04T22:16:15.517Z,7.68
2023-02-04T22:18:41.956Z,7.67
2023-02-04T22:21:11.104Z,7.69
2023-02-04T22:23:40.701Z,7.71
2023-02-04T22:26:09.886Z,7.71
2023-02-04T22:28:36.295Z,7.72
2023-02-04T22:31:04.000Z,7.71
2023-02-04T22:33:33.728Z,7.71
2023-02-04T22:36:00.177Z,7.71
2023-02-04T22:38:26.587Z,7.71
2023-02-04T22:40:53.016Z,7.71
2023-02-04T22:43:19.775Z,7.71
2023-02-04T22:45:46.212Z,7.72
2023-02-04T22:48:15.994Z,7.72
2023-02-04T22:50:42.423Z,7.69
2023-02-04T22:53:08.836Z,7.69
2023-02-04T22:55:35.502Z,7.69
2023-02-04T23:00:42.935Z,7.67
2023-02-04T23:03:12.492Z,7.69
2023-02-04T23:05:42.176Z,7.66
2023-02-04T23:08:08.674Z,7.65
2023-02-04T23:10:35.136Z,7.64
2023-02-04T23:13:01.567Z,7.59
2023-02-04T23:15:28.063Z,7.60
2023-02-04T23:17:54.705Z,7.60
2023-02-04T23:20:21.248Z,7.58
2023-02-04T23:22:47.747Z,7.58
2023-02-04T23:25:14.305Z,7.58
2023-02-04T23:27:40.970Z,7.57
2023-02-04T23:30:07.780Z,7.58
2023-02-04T23:32:34.227Z,7.57
2023-02-04T23:35:00.693Z,7.57
2023-02-04T23:37:27.318Z,7.55
2023-02-04T23:39:53.822Z,7.54
2023-02-04T23:42:20.253Z,7.57
2023-02-04T23:44:46.689Z,7.54
2023-02-04T23:47:13.132Z,7.53
2023-02-04T23:49:39.547Z,7.54
2023-02-04T23:52:07.321Z,7.57
2023-02-04T23:54:35.067Z,7.57
2023-02-04T23:57:02.236Z,7.55
2023-02-04T23:59:28.640Z,7.57
